Aérodrome :
LOGIN :

S'inscrire | Disclaimer

   EN    FR    IT 

 










Légende :    VFR   VFR Marginal   IFR   IFR Intensif   IFR Très Intensif
Visi : 
Plafond : 
>= 8 km
>= 3000ft
5 à 8 km
1000 à 3000 ft
1500m à 5 km
500 à 1000 ft
800 à 1500m
200 à 500 ft
< 800m
< 200 ft
Symboles :   Orages  Brouillard  Fortes neiges  Fortes précipitations  Vent > 20 kt
SIGMETs :   Divers  Orages  Givrage  Turbulence  Onde Orograph.  Cendres Volcan.







- Altitude de l'aérodrome : 200 ft


EBBL - Klein Brogel AB

DERNIER METAR :
  • 230255Z AUTO 22003KT 9999 NCD 14/10 Q1015 BLU

METARs EXPIRÉS :
  • 230225Z AUTO 22003KT 9999 FEW150/// 14/10 Q1015 BLU
  • 230155Z AUTO 22003KT 9999 FEW150/// 14/10 Q1015 BLU
  • 230125Z AUTO 22004KT 9999 SCT150/// BKN210/// 14/10 Q1015 BLU
  • 230055Z AUTO 23003KT 9999 FEW160/// BKN220/// 15/10 Q1015 BLU
  • 230025Z AUTO 22005KT 9999 BKN220/// 16/10 Q1015 BLU
  • 222355Z AUTO 24005KT 9999 FEW170/// BKN220/// 16/10 Q1015 BLU

TAF TAF EBBL
Valide du 22 à 19h jusqu'au 23 à 07h UTC


221541Z 2219/2307 13004KT 9999 FEW060 SCT200
TEMPO 2219/2301 VRB02KT FEW040 BKN160
TEMPO 2300/2307 23006KT FEW045 SCT110
Pas de NOTAMs connus pour ce terrain.



MET'MAP, la Météo Aéronautique d'un coup d'oeil ! - Copyright ORBIFLY Décembre 2007 - Disclaimer

ORBIFLY MET'MAP TEAM :

Programmation & Développement : Alexandra Zaïnal
Conception & Développement : Baudouin d'Aumeries
Co-Programmation & Développement : Marc-Olivier Méhu
Soutien technique & logistique : Manuel Goepfert

Contact : metmap@orbifly.com




SOURCES & CREDITS :

   NOAA